Salina Municipal Airport Salina US
ICAO: KSLN
IATA: SLN
Category: Medium
Scheduled Services: Yes

Elevation: 1288 ft
TransAlt. 18000 ft.

Airport Communications:
ATIS:120.15
KANSAS CITY CNTR:134.9
CTAF:119.3
GND:121.9
ARNG OPS:49.95
WICHITA RDO:122.4
TWR:119.3
UNICOM:122.95

KSLN Zoom In..

If you have problems with the map follow the link
https://www.worldairports.se/pages/airport.php?
ICAO=KSLN

Runways:

(A) RW 04 length 3648 ft width 75 ft
---- / hdg 42

(B) RW 12 length 6510 ft width 100 ft
---- / hdg 125

(C) RW 17 length 12300 ft width 150 ft
---- / hdg 173

(D) RW 18 length 4301 ft width 75 ft
---- / hdg 173

(E) RW 22 length 3648 ft width 75 ft
---- / hdg 222

(F) RW 30 length 6510 ft width 100 ft
---- / hdg 305

(G) RW 35 length 12300 ft width 150 ft
ILS 108.90 / hdg 353

(H) RW 36 length 4301 ft width 75 ft
---- / hdg 353

Location; KSLN
Day. 10 / Time. 02.53 Zulu
* Altimeter: 30.16
* Temperature: -07° c. -19.4°f.
* Wind from: 220° Speed 06 kn.
Dewpoint: -12° c.
Visibility: 10 Statute Miles.
Clouds: Clear (automated report).

KSLN 100253Z 22006KT 10SM CLR M07/M12 A3016 RMK AO2 SLP229 T10721122 53017


Wind From 220°
Speed 06 kn.

 
 
jpsmedia worldairports.se 2019   terms of use